Time;durP1;ratioP1;P1;durP2;ratioP2;P2;SDS_P1;SDS_P2;PMS_P1;PMS_P2;Temp;Humidity;BMP_temperature;BMP_pressure;BME280_temperature;BME280_humidity;BME280_pressure;Samples;Min_cycle;Max_cycle;Signal;HPM_P1;HPM_P2
2021/07/20 00:01:29;;;;;;;11.32;8.55;;;;;;;25.39;100.00;100360.19;5004893;28;20036;-70
2021/07/20 00:04:15;;;;;;;10.63;9.10;;;;;;;25.33;100.00;100353.53;5017019;28;20030;-71
2021/07/20 00:07:00;;;;;;;12.48;9.27;;;;;;;25.43;100.00;100345.56;5016936;28;20498;-71
2021/07/20 00:09:46;;;;;;;11.45;9.35;;;;;;;25.00;100.00;100355.44;5016974;28;20049;-71
2021/07/20 00:12:32;;;;;;;10.45;9.43;;;;;;;25.50;100.00;100352.94;5016733;28;20033;-71
2021/07/20 00:15:18;;;;;;;11.25;10.05;;;;;;;25.72;100.00;100354.66;5017897;28;20109;-71
2021/07/20 00:18:10;;;;;;;11.43;9.52;;;;;;;25.53;100.00;100344.63;5016511;28;20156;-71
2021/07/20 00:20:56;;;;;;;13.18;10.65;;;;;;;25.65;100.00;100350.78;5016926;28;20113;-71
2021/07/20 00:23:42;;;;;;;12.38;10.55;;;;;;;25.69;100.00;100338.81;5016690;28;20039;-71
2021/07/20 00:26:28;;;;;;;13.32;10.45;;;;;;;25.83;100.00;100346.50;5016541;28;20109;-71
2021/07/20 00:29:13;;;;;;;11.02;9.93;;;;;;;25.79;100.00;100345.94;5016498;28;20025;-71
2021/07/20 00:31:59;;;;;;;12.68;11.32;;;;;;;25.86;100.00;100341.75;5016700;28;20451;-71
2021/07/20 00:34:45;;;;;;;15.02;11.85;;;;;;;25.63;100.00;100342.84;5002851;28;20030;-71
2021/07/20 00:37:31;;;;;;;15.02;11.25;;;;;;;25.99;100.00;100333.50;5016735;28;20022;-71
2021/07/20 00:40:18;;;;;;;14.10;10.98;;;;;;;26.10;100.00;100330.72;5016356;28;20029;-71
2021/07/20 00:43:05;;;;;;;12.73;10.60;;;;;;;26.05;100.00;100336.53;5015891;28;20046;-71
2021/07/20 00:45:51;;;;;;;13.70;11.20;;;;;;;25.92;100.00;100335.81;5015715;28;20022;-71
2021/07/20 00:48:37;;;;;;;13.73;11.48;;;;;;;25.57;100.00;100329.13;5016008;28;20108;-71
2021/07/20 00:51:23;;;;;;;13.45;11.55;;;;;;;25.87;100.00;100327.34;5002879;28;20048;-71
2021/07/20 00:54:09;;;;;;;15.38;11.52;;;;;;;26.12;100.00;100323.41;5002173;28;20131;-71
2021/07/20 00:56:55;;;;;;;14.07;12.10;;;;;;;26.13;100.00;100319.72;5015936;28;20128;-71
2021/07/20 00:59:41;;;;;;;12.57;11.27;;;;;;;26.22;100.00;100313.53;5016176;28;20369;-71
2021/07/20 01:02:27;;;;;;;16.10;11.63;;;;;;;26.10;100.00;100317.31;5016427;28;20033;-71
2021/07/20 01:05:17;;;;;;;13.95;11.50;;;;;;;26.17;100.00;100313.09;5015696;28;20032;-71
2021/07/20 01:08:05;;;;;;;13.15;10.85;;;;;;;26.07;100.00;100312.19;5015411;28;20030;-70
2021/07/20 01:10:52;;;;;;;11.85;10.65;;;;;;;26.02;100.00;100307.25;5015935;28;20040;-72
2021/07/20 01:13:38;;;;;;;27.98;14.98;;;;;;;25.84;100.00;100310.66;5016058;28;20038;-71
2021/07/20 01:16:25;;;;;;;13.73;11.05;;;;;;;26.14;100.00;100313.38;5015876;28;20438;-71
2021/07/20 01:19:14;;;;;;;14.30;12.05;;;;;;;26.24;100.00;100307.03;5001188;28;20121;-71
2021/07/20 01:22:03;;;;;;;14.05;10.85;;;;;;;26.04;100.00;100317.84;5015615;28;20041;-71
2021/07/20 07:28:59;;;;;;;15.32;12.13;;;;;;;28.57;100.00;100452.09;5114875;22;20042;-71
2021/07/20 08:09:04;;;;;;;14.70;11.35;;;;;;;30.47;100.00;100447.19;5091570;22;19921;-70
2021/07/20 08:11:52;;;;;;;13.55;11.18;;;;;;;30.43;100.00;100445.81;5016306;28;20029;-70
2021/07/20 08:14:38;;;;;;;15.27;11.45;;;;;;;31.04;100.00;100451.91;5016182;28;20104;-71
2021/07/20 08:17:25;;;;;;;15.57;10.98;;;;;;;31.79;100.00;100462.66;4996768;28;20410;-71
2021/07/20 08:20:13;;;;;;;11.80;10.52;;;;;;;31.30;100.00;100458.13;4997145;28;20102;-70
2021/07/20 08:22:59;;;;;;;12.07;10.50;;;;;;;30.67;100.00;100460.34;4983563;28;20034;-71
2021/07/20 08:25:48;;;;;;;12.10;10.90;;;;;;;30.37;100.00;100458.13;4996768;28;20052;-71
2021/07/20 08:28:43;;;;;;;13.50;10.82;;;;;;;30.55;100.00;100467.03;4997377;28;20045;-71
2021/07/20 08:31:38;;;;;;;12.82;11.10;;;;;;;30.58;100.00;100457.75;4997450;28;20125;-71
2021/07/20 08:34:26;;;;;;;11.52;10.32;;;;;;;30.06;100.00;100450.59;4996595;28;20378;-71
2021/07/20 08:37:15;;;;;;;11.57;10.13;;;;;;;30.97;100.00;100457.13;4996346;28;20061;-70
2021/07/20 08:40:08;;;;;;;15.52;10.48;;;;;;;31.33;100.00;100454.25;4997257;28;20049;-70
2021/07/20 08:43:13;;;;;;;11.55;9.57;;;;;;;31.25;100.00;100447.78;4997383;28;20419;-70
2021/07/20 08:46:19;;;;;;;15.10;10.63;;;;;;;30.82;100.00;100456.03;4996051;28;20061;-70
2021/07/20 08:49:20;;;;;;;11.40;9.90;;;;;;;30.97;100.00;100462.53;4996285;28;20045;-70
2021/07/20 08:52:39;;;;;;;14.30;9.68;;;;;;;31.36;100.00;100446.63;4995696;28;20026;-70
2021/07/20 08:55:27;;;;;;;13.30;10.05;;;;;;;31.94;100.00;100449.28;4990782;28;20367;-70
2021/07/20 08:58:55;;;;;;;14.40;10.23;;;;;;;32.13;100.00;100443.47;4996408;28;20026;-70
2021/07/20 09:01:54;;;;;;;11.15;9.32;;;;;;;31.51;100.00;100447.69;4899687;29;20609;-70
2021/07/20 09:04:57;;;;;;;13.18;9.43;;;;;;;31.67;100.00;100436.00;4899742;29;20068;-70
2021/07/20 09:07:54;;;;;;;12.05;10.50;;;;;;;31.78;100.00;100443.84;4995972;28;20426;-71
2021/07/20 09:10:45;;;;;;;14.63;9.70;;;;;;;32.36;97.66;100439.09;4982675;28;20038;-71
2021/07/20 09:13:34;;;;;;;11.55;10.38;;;;;;;32.07;99.38;100442.31;4996144;28;20451;-70
2021/07/20 09:16:45;;;;;;;10.90;9.90;;;;;;;31.62;100.00;100441.09;4996035;28;20072;-70
2021/07/20 09:19:34;;;;;;;13.40;10.57;;;;;;;31.60;100.00;100434.97;4995311;28;20057;-69
2021/07/20 09:22:34;;;;;;;12.32;10.65;;;;;;;32.40;97.11;100435.88;4996241;28;20022;-70
2021/07/20 09:25:52;;;;;;;11.13;10.05;;;;;;;32.67;94.78;100442.75;4981813;28;20109;-70
2021/07/20 09:28:49;;;;;;;14.18;11.35;;;;;;;32.61;96.76;100433.44;4995160;28;20072;-70
2021/07/20 09:31:47;;;;;;;13.93;12.10;;;;;;;32.77;95.08;100432.50;4982256;28;20026;-70
2021/07/20 09:34:49;;;;;;;14.38;11.77;;;;;;;33.14;93.72;100436.28;4995660;28;20105;-71
2021/07/20 09:37:48;;;;;;;14.32;12.38;;;;;;;33.25;91.96;100433.19;4995500;28;20030;-71
2021/07/20 09:40:43;;;;;;;14.38;12.27;;;;;;;33.03;91.98;100441.28;4994776;28;20041;-71
2021/07/20 09:43:45;;;;;;;13.15;11.80;;;;;;;32.45;95.85;100430.75;4981681;28;20188;-71
2021/07/20 09:47:02;;;;;;;12.95;11.52;;;;;;;32.88;94.46;100433.03;4995477;28;20037;-70
2021/07/20 09:50:16;;;;;;;12.63;11.50;;;;;;;33.18;93.13;100440.34;4996120;28;20034;-71
2021/07/20 09:53:20;;;;;;;12.38;11.07;;;;;;;32.83;95.32;100432.69;4995924;28;20019;-71
2021/07/20 09:56:29;;;;;;;12.32;11.13;;;;;;;32.66;96.51;100428.31;4994895;28;20426;-71
2021/07/20 09:59:45;;;;;;;11.32;10.30;;;;;;;32.58;97.24;100432.94;4995403;28;20032;-71
2021/07/20 10:02:47;;;;;;;13.45;10.80;;;;;;;32.35;96.08;100429.25;4983569;28;20403;-70
2021/07/20 13:10:05;;;;;;;12.85;11.40;;;;;;;33.23;79.33;100326.56;5090801;23;19922;-72
2021/07/20 13:12:54;;;;;;;14.07;11.25;;;;;;;33.74;73.99;100320.41;5015282;28;20033;-72
2021/07/20 13:15:48;;;;;;;12.52;10.95;;;;;;;33.40;77.94;100321.91;5016138;28;20073;-72
2021/07/20 13:18:35;;;;;;;13.35;11.00;;;;;;;33.47;78.15;100318.25;5015901;28;20113;-71
2021/07/20 13:21:21;;;;;;;12.40;11.10;;;;;;;33.41;79.60;100321.72;5015581;28;20524;-71
2021/07/20 13:24:07;;;;;;;12.63;10.95;;;;;;;33.29;77.78;100325.00;5015695;28;20030;-71
2021/07/20 13:26:56;;;;;;;13.35;10.60;;;;;;;33.38;75.19;100321.22;5015823;28;20037;-71
2021/07/20 13:29:47;;;;;;;12.50;11.25;;;;;;;33.33;76.04;100310.06;5016054;28;20026;-71
2021/07/20 13:32:34;;;;;;;17.88;11.88;;;;;;;33.12;78.39;100315.28;5016338;28;20057;-71
2021/07/20 13:35:24;;;;;;;13.73;12.32;;;;;;;33.22;79.72;100313.19;5015820;28;20105;-71
2021/07/20 13:38:10;;;;;;;13.88;11.77;;;;;;;33.19;81.04;100314.38;5015747;28;20045;-72
2021/07/20 13:40:59;;;;;;;13.25;11.57;;;;;;;33.31;80.99;100314.81;5016054;28;20030;-71
2021/07/20 13:43:45;;;;;;;12.75;11.50;;;;;;;33.20;81.00;100304.38;5016182;28;20022;-72
2021/07/20 13:46:35;;;;;;;13.73;10.88;;;;;;;32.48;85.40;100308.34;5015454;28;20160;-71
2021/07/20 13:49:26;;;;;;;16.33;11.27;;;;;;;32.41;84.95;100311.91;5015201;28;20029;-72
2021/07/20 13:52:15;;;;;;;13.10;10.70;;;;;;;32.62;83.97;100309.47;5016021;28;20465;-72
2021/07/20 13:55:06;;;;;;;12.13;10.70;;;;;;;32.72;83.33;100307.38;5014615;28;20018;-72
2021/07/20 13:57:53;;;;;;;13.93;10.60;;;;;;;32.75;85.23;100309.72;5015511;28;20036;-72
2021/07/20 15:58:17;;;;;;;15.02;12.63;;;;;;;31.78;90.99;100314.59;6111328;22;19920;31
2021/07/20 16:01:06;;;;;;;15.40;12.73;;;;;;;31.85;91.52;100315.63;4937644;29;19931;-70
2021/07/20 16:03:51;;;;;;;16.60;12.40;;;;;;;31.93;89.29;100321.03;4939202;29;20024;-71
2021/07/20 16:06:38;;;;;;;13.73;11.55;;;;;;;32.12;87.65;100319.78;4926970;29;20039;-71
2021/07/20 17:08:36;;;;;;;14.30;12.80;;;;;;;30.95;100.00;100359.00;6081088;23;20119;31
2021/07/20 17:11:22;;;;;;;17.33;13.18;;;;;;;30.70;100.00;100365.34;4938083;29;20070;-71
2021/07/20 17:14:08;;;;;;;18.13;13.23;;;;;;;30.73;100.00;100359.63;4940157;28;20049;-71
2021/07/20 17:16:54;;;;;;;15.82;13.02;;;;;;;30.67;100.00;100365.66;4939171;28;20026;-71
2021/07/20 17:19:41;;;;;;;17.27;13.32;;;;;;;30.89;100.00;100365.09;4939462;29;20024;-70
2021/07/20 17:22:27;;;;;;;17.55;12.65;;;;;;;30.79;100.00;100358.94;4939006;29;20031;-71
2021/07/20 17:25:21;;;;;;;14.38;12.80;;;;;;;30.86;100.00;100364.59;4939028;29;20028;-70
2021/07/20 17:28:17;;;;;;;14.48;12.88;;;;;;;30.93;100.00;100369.16;4939482;29;20063;-70
2021/07/20 17:31:05;;;;;;;15.10;12.95;;;;;;;30.64;100.00;100371.41;4937592;29;20035;-71
2021/07/20 17:33:54;;;;;;;16.67;12.85;;;;;;;30.66;100.00;100372.06;4939814;29;20460;-71
2021/07/20 17:36:40;;;;;;;16.38;11.70;;;;;;;30.70;100.00;100376.16;4939886;29;20027;-71
2021/07/20 17:39:32;;;;;;;15.43;11.65;;;;;;;30.53;100.00;100379.78;4938020;29;20039;-71
2021/07/20 17:42:20;;;;;;;12.02;10.65;;;;;;;30.33;100.00;100383.75;4937680;29;20031;-70
2021/07/20 17:45:12;;;;;;;14.60;11.95;;;;;;;29.97;100.00;100381.28;4938800;29;20059;-70
2021/07/20 17:47:58;;;;;;;18.27;12.70;;;;;;;29.65;100.00;100389.16;4924862;29;20033;-72
2021/07/20 17:50:45;;;;;;;15.98;11.73;;;;;;;30.04;100.00;100390.44;4937653;29;20186;-71
2021/07/20 17:53:37;;;;;;;14.80;12.48;;;;;;;29.96;100.00;100379.56;4938152;29;20027;-70
2021/07/20 17:56:23;;;;;;;17.50;11.82;;;;;;;30.01;100.00;100391.63;4936999;29;20055;-72
2021/07/20 17:59:08;;;;;;;15.25;11.95;;;;;;;29.83;100.00;100389.97;4938265;29;20528;-72
2021/07/20 18:01:54;;;;;;;17.10;12.90;;;;;;;30.08;100.00;100399.94;4938176;29;20047;-71
2021/07/20 18:04:41;;;;;;;16.15;11.70;;;;;;;29.84;100.00;100397.03;4937177;29;20111;-71
2021/07/20 18:07:26;;;;;;;13.70;11.88;;;;;;;30.04;100.00;100396.72;4938570;29;20023;-71
2021/07/20 18:10:12;;;;;;;14.07;11.35;;;;;;;30.03;100.00;100402.25;4923978;29;20044;-71
2021/07/20 18:12:59;;;;;;;13.15;11.18;;;;;;;29.51;100.00;100405.84;4938878;29;20098;-72
2021/07/20 18:15:45;;;;;;;14.02;11.07;;;;;;;29.23;100.00;100413.16;4938925;29;20523;-71
2021/07/20 18:18:31;;;;;;;14.40;11.40;;;;;;;29.52;100.00;100411.09;4939093;29;20452;-71
2021/07/20 18:21:17;;;;;;;16.85;10.85;;;;;;;29.17;100.00;100429.97;4924341;29;20031;-70
2021/07/20 18:24:05;;;;;;;19.65;10.95;;;;;;;29.55;100.00;100434.25;4923462;29;20110;-70
2021/07/20 18:26:50;;;;;;;12.25;10.77;;;;;;;29.57;100.00;100435.81;4936333;29;20088;-71
2021/07/20 18:29:36;;;;;;;16.27;11.65;;;;;;;29.23;100.00;100429.38;4936794;29;20031;-71
2021/07/20 18:32:23;;;;;;;14.20;10.68;;;;;;;29.08;100.00;100433.56;4936806;29;20122;-71
2021/07/20 18:35:09;;;;;;;14.75;11.07;;;;;;;29.19;100.00;100440.59;4936424;29;20114;-73
2021/07/20 18:37:55;;;;;;;13.73;10.43;;;;;;;29.24;100.00;100446.38;4923075;29;20051;-71
2021/07/20 18:40:41;;;;;;;14.88;10.13;;;;;;;29.50;100.00;100441.97;4936985;29;20031;-71
2021/07/20 18:43:27;;;;;;;12.23;9.70;;;;;;;29.21;100.00;100446.72;4937901;29;20372;-70
2021/07/20 18:46:14;;;;;;;15.25;10.30;;;;;;;28.94;100.00;100447.53;4937496;29;20027;-72
2021/07/20 18:49:00;;;;;;;14.07;10.25;;;;;;;28.87;100.00;100448.28;4923912;29;20095;-70
2021/07/20 18:51:46;;;;;;;11.23;9.02;;;;;;;28.95;100.00;100451.94;4937744;29;20038;-72
2021/07/20 18:54:31;;;;;;;11.30;10.02;;;;;;;29.03;100.00;100452.06;4936813;29;20027;-71
2021/07/20 18:57:17;;;;;;;14.70;9.57;;;;;;;28.85;100.00;100451.13;4937235;29;20110;-71
2021/07/20 19:00:07;;;;;;;10.38;9.25;;;;;;;28.79;100.00;100451.72;4936679;29;20440;-71
2021/07/20 19:02:52;;;;;;;12.65;9.40;;;;;;;28.86;100.00;100457.38;4939391;29;20388;-70
2021/07/20 19:05:39;;;;;;;12.45;9.48;;;;;;;28.55;100.00;100459.50;4941057;29;20027;-70
2021/07/20 19:08:26;;;;;;;13.05;9.02;;;;;;;28.70;100.00;100467.94;4941237;29;20034;-69
2021/07/20 19:11:12;;;;;;;17.38;9.63;;;;;;;28.54;100.00;100470.41;4941278;29;20048;-70
2021/07/20 19:13:58;;;;;;;11.32;8.73;;;;;;;28.63;100.00;100474.91;4941395;29;20074;-70
2021/07/20 19:16:44;;;;;;;12.93;9.20;;;;;;;28.46;100.00;100471.16;4940756;29;20028;-69
2021/07/20 19:19:30;;;;;;;10.45;8.80;;;;;;;28.31;100.00;100471.72;4939923;29;20413;-69
2021/07/20 19:22:16;;;;;;;10.13;9.10;;;;;;;28.66;100.00;100475.50;4940862;29;20375;-71
2021/07/20 19:25:05;;;;;;;10.73;8.82;;;;;;;28.52;100.00;100478.66;4940423;29;20191;-69
2021/07/20 19:27:52;;;;;;;9.70;8.15;;;;;;;28.63;100.00;100473.09;4940915;29;20047;-69
2021/07/20 19:30:39;;;;;;;12.50;8.07;;;;;;;28.72;100.00;100465.97;4940576;29;20042;-69
2021/07/20 19:33:25;;;;;;;11.90;7.93;;;;;;;28.28;100.00;100472.03;4941118;29;20043;-70
2021/07/20 19:36:11;;;;;;;8.75;7.85;;;;;;;28.40;100.00;100476.25;4941634;28;20020;-69
2021/07/20 19:38:57;;;;;;;10.90;8.10;;;;;;;28.04;100.00;100475.16;4927510;29;20208;-69
2021/07/20 19:41:42;;;;;;;12.82;8.43;;;;;;;28.26;100.00;100479.38;4940552;29;20051;-69
2021/07/20 19:44:28;;;;;;;9.32;8.10;;;;;;;27.96;100.00;100483.09;4927076;29;20028;-69
2021/07/20 19:47:14;;;;;;;8.93;8.02;;;;;;;27.99;100.00;100481.97;4940762;29;20039;-68
2021/07/20 19:50:00;;;;;;;13.82;8.65;;;;;;;28.22;100.00;100477.97;4941800;28;20119;-70
2021/07/20 19:52:46;;;;;;;14.00;8.10;;;;;;;28.01;100.00;100483.56;4940890;29;20309;-69
2021/07/20 19:55:34;;;;;;;11.82;8.10;;;;;;;28.11;100.00;100478.13;4941076;29;20380;-70
2021/07/20 19:58:20;;;;;;;12.57;8.00;;;;;;;28.01;100.00;100482.69;4940341;29;20119;-69
2021/07/20 20:01:06;;;;;;;12.65;7.90;;;;;;;28.06;100.00;100485.78;4940069;29;20038;-70
2021/07/20 20:03:53;;;;;;;10.50;7.45;;;;;;;28.05;100.00;100481.41;4941000;29;20038;-70
2021/07/20 20:06:39;;;;;;;12.48;7.85;;;;;;;27.92;100.00;100488.94;4939994;29;20046;-71
2021/07/20 20:09:26;;;;;;;10.20;7.78;;;;;;;27.73;100.00;100492.44;4939962;29;20048;-70
2021/07/20 20:12:13;;;;;;;10.23;7.68;;;;;;;27.94;100.00;100492.31;4940064;29;20107;-69
2021/07/20 20:14:59;;;;;;;9.45;7.20;;;;;;;28.11;100.00;100497.84;4939900;29;20027;-71
2021/07/20 20:17:45;;;;;;;13.40;8.13;;;;;;;27.77;100.00;100504.63;4940209;29;20039;-71
2021/07/20 20:20:31;;;;;;;8.95;7.45;;;;;;;27.91;100.00;100503.38;4940396;29;20108;-71
2021/07/20 20:23:17;;;;;;;11.93;8.25;;;;;;;27.78;100.00;100508.16;4939397;29;20027;-70
2021/07/20 20:26:03;;;;;;;11.43;7.57;;;;;;;27.60;100.00;100509.84;4940220;29;20031;-70
2021/07/20 20:28:49;;;;;;;14.23;7.80;;;;;;;27.50;100.00;100501.75;4940132;29;20051;-72
2021/07/20 20:31:35;;;;;;;9.60;7.80;;;;;;;27.40;100.00;100511.66;4939584;29;20031;-69
2021/07/20 20:34:21;;;;;;;9.45;7.35;;;;;;;27.53;100.00;100506.88;4940123;29;20453;-70
2021/07/20 20:37:07;;;;;;;9.90;7.70;;;;;;;27.25;100.00;100510.34;4938516;29;20040;-70
2021/07/20 20:39:53;;;;;;;10.10;7.68;;;;;;;27.13;100.00;100506.03;4926992;28;20118;-70
2021/07/20 20:42:39;;;;;;;10.13;7.80;;;;;;;26.90;100.00;100515.28;4939496;29;20032;-70
2021/07/20 20:45:25;;;;;;;10.25;8.00;;;;;;;27.13;100.00;100512.25;4939830;29;20028;-70
2021/07/20 20:48:11;;;;;;;8.90;7.22;;;;;;;27.12;100.00;100515.94;4939391;29;20051;-70
2021/07/20 20:50:57;;;;;;;9.48;7.78;;;;;;;27.04;100.00;100510.38;4939666;29;20123;-69
2021/07/20 20:53:43;;;;;;;10.70;8.10;;;;;;;27.00;100.00;100513.47;4939446;29;20108;-70
2021/07/20 20:56:29;;;;;;;12.88;8.32;;;;;;;27.06;100.00;100521.00;4939811;29;20028;-70
2021/07/20 20:59:14;;;;;;;12.57;7.88;;;;;;;26.87;100.00;100513.72;4940456;29;20024;-70
2021/07/20 21:02:00;;;;;;;9.13;7.75;;;;;;;26.84;100.00;100513.97;4939488;29;20027;-69
2021/07/20 21:04:46;;;;;;;11.55;8.05;;;;;;;27.01;100.00;100516.03;4925189;29;20112;-70
2021/07/20 21:07:32;;;;;;;10.05;8.05;;;;;;;26.73;100.00;100522.13;4939096;29;20468;-69
2021/07/20 21:10:18;;;;;;;10.82;8.02;;;;;;;27.03;100.00;100527.50;4938967;29;20051;-69
2021/07/20 21:13:04;;;;;;;12.57;8.38;;;;;;;27.06;100.00;100537.16;4938721;29;20046;-70
2021/07/20 21:15:49;;;;;;;10.60;8.35;;;;;;;26.91;100.00;100525.91;4939106;29;20354;-70
2021/07/20 21:18:35;;;;;;;10.65;8.30;;;;;;;26.64;100.00;100530.16;4939042;29;20119;-70
2021/07/20 21:21:21;;;;;;;11.75;9.07;;;;;;;26.90;100.00;100524.22;4938812;29;20032;-70
2021/07/20 21:24:07;;;;;;;10.80;8.80;;;;;;;26.61;100.00;100533.09;4937984;29;20102;-70
2021/07/20 21:26:53;;;;;;;10.23;9.13;;;;;;;26.21;100.00;100542.84;4924412;29;20031;-70
2021/07/20 21:29:39;;;;;;;12.50;9.13;;;;;;;26.18;100.00;100538.59;4937929;29;20023;-69
2021/07/20 21:32:24;;;;;;;12.55;9.60;;;;;;;26.48;100.00;100543.19;4938991;29;20084;-69
2021/07/20 21:35:11;;;;;;;13.52;9.77;;;;;;;26.72;100.00;100538.41;4938753;29;20038;-70
2021/07/20 21:37:57;;;;;;;14.35;9.88;;;;;;;26.30;100.00;100539.38;4939017;29;20028;-69
2021/07/20 21:40:43;;;;;;;17.30;10.88;;;;;;;26.44;100.00;100555.19;4938705;29;20047;-70
2021/07/20 21:43:28;;;;;;;14.10;10.15;;;;;;;26.62;100.00;100550.94;4925119;29;20094;-70
2021/07/20 21:46:14;;;;;;;13.73;10.52;;;;;;;26.56;100.00;100556.81;4938800;29;20038;-70
2021/07/20 21:49:00;;;;;;;13.68;11.25;;;;;;;26.39;100.00;100554.69;4937307;29;20031;-70
2021/07/20 21:51:46;;;;;;;14.82;11.27;;;;;;;26.36;100.00;100563.88;4938252;29;20027;-70
2021/07/20 21:54:33;;;;;;;18.42;12.73;;;;;;;26.00;100.00;100566.13;4924257;29;20035;-70
2021/07/20 21:57:19;;;;;;;14.48;12.82;;;;;;;25.99;100.00;100559.91;4937874;29;20031;-70
2021/07/20 22:00:20;;;;;;;16.92;13.15;;;;;;;25.97;100.00;100558.31;4936972;29;20118;-70
2021/07/20 22:03:06;;;;;;;15.52;13.13;;;;;;;26.28;100.00;100560.97;4937407;29;20027;-70
2021/07/20 22:05:52;;;;;;;15.02;13.13;;;;;;;26.11;100.00;100561.56;4937495;29;20027;-69
2021/07/20 22:08:38;;;;;;;18.33;13.30;;;;;;;25.49;100.00;100565.88;4937706;29;20035;-70
2021/07/20 22:11:24;;;;;;;19.10;14.05;;;;;;;25.58;100.00;100575.00;4937028;29;20114;-70
2021/07/20 22:14:10;;;;;;;17.20;14.68;;;;;;;25.73;100.00;100576.44;4938811;29;20369;-69
2021/07/20 22:16:56;;;;;;;19.88;15.05;;;;;;;25.73;100.00;100577.28;4936856;29;20034;-70
2021/07/20 22:19:44;;;;;;;18.48;14.80;;;;;;;25.91;100.00;100578.44;4936882;29;20027;-69
2021/07/20 22:22:29;;;;;;;16.30;14.02;;;;;;;25.74;100.00;100576.31;4937196;29;20028;-70
2021/07/20 22:25:34;;;;;;;18.60;14.38;;;;;;;25.97;100.00;100575.31;4936319;29;20421;-70
2021/07/20 22:28:20;;;;;;;18.35;14.35;;;;;;;26.01;100.00;100581.25;4936622;29;20031;-69
2021/07/20 22:31:10;;;;;;;22.05;14.90;;;;;;;25.76;100.00;100574.34;4937425;29;20098;-70
2021/07/20 22:33:56;;;;;;;17.00;15.13;;;;;;;25.35;100.00;100573.34;4938331;29;20043;-70
2021/07/20 22:36:42;;;;;;;18.45;15.32;;;;;;;25.27;100.00;100573.91;4936993;29;20115;-70
2021/07/20 22:39:28;;;;;;;18.30;14.85;;;;;;;25.72;100.00;100575.56;4936669;29;20031;-70
2021/07/20 22:42:13;;;;;;;20.00;14.75;;;;;;;25.72;100.00;100567.50;4936997;29;20456;-70
2021/07/20 22:44:59;;;;;;;20.30;14.63;;;;;;;25.51;100.00;100569.28;4937455;29;20023;-70
2021/07/20 22:47:46;;;;;;;17.15;14.18;;;;;;;25.41;100.00;100573.69;4937713;29;20037;-70
2021/07/20 22:50:34;;;;;;;17.42;13.75;;;;;;;25.36;100.00;100567.81;4936278;29;20330;-70
2021/07/20 22:53:21;;;;;;;16.17;12.80;;;;;;;25.32;100.00;100568.22;4937287;29;20412;-70
2021/07/20 22:56:07;;;;;;;14.32;12.27;;;;;;;25.26;100.00;100564.16;4937964;29;20056;-70
2021/07/20 22:58:53;;;;;;;17.73;11.77;;;;;;;25.34;100.00;100564.44;4923093;29;20062;-70
2021/07/20 23:01:39;;;;;;;13.80;11.02;;;;;;;25.38;100.00;100568.56;4936584;29;20111;-71
2021/07/20 23:04:25;;;;;;;13.02;10.63;;;;;;;25.32;100.00;100569.06;4938098;29;20027;-70
2021/07/20 23:07:12;;;;;;;12.75;10.82;;;;;;;25.29;100.00;100572.00;4936051;29;20027;-71
2021/07/20 23:09:58;;;;;;;13.88;10.25;;;;;;;25.20;100.00;100578.03;4936196;29;20083;-70
2021/07/20 23:12:44;;;;;;;14.77;10.20;;;;;;;25.34;100.00;100585.88;4936132;29;20039;-70
2021/07/20 23:15:30;;;;;;;12.15;10.65;;;;;;;25.30;100.00;100587.13;4936652;29;20039;-71
2021/07/20 23:18:18;;;;;;;15.52;10.30;;;;;;;25.00;100.00;100580.63;4937727;29;20477;-70
2021/07/20 23:21:07;;;;;;;11.75;9.88;;;;;;;25.29;100.00;100581.88;4937834;29;20393;-70
2021/07/20 23:23:53;;;;;;;10.35;9.25;;;;;;;25.00;100.00;100580.63;4936491;29;20369;-70
2021/07/20 23:26:39;;;;;;;12.45;10.27;;;;;;;24.94;100.00;100573.91;4936516;29;20039;-70
2021/07/20 23:29:25;;;;;;;12.50;10.15;;;;;;;24.96;100.00;100580.03;4936625;29;20528;-70
2021/07/20 23:32:11;;;;;;;11.25;9.90;;;;;;;24.90;100.00;100576.94;4923555;29;20054;-70
2021/07/20 23:34:56;;;;;;;10.13;9.13;;;;;;;25.18;100.00;100585.38;4937065;29;20375;-70
2021/07/20 23:37:45;;;;;;;12.82;9.20;;;;;;;25.20;100.00;100580.72;4936916;29;20032;-70
2021/07/20 23:40:34;;;;;;;10.70;9.52;;;;;;;25.13;100.00;100582.22;4937460;29;20349;-70
2021/07/20 23:43:23;;;;;;;11.35;9.52;;;;;;;24.72;100.00;100578.41;4936781;29;20036;-70
2021/07/20 23:46:09;;;;;;;10.68;9.50;;;;;;;24.69;100.00;100576.81;4936914;29;20028;-70
2021/07/20 23:48:55;;;;;;;12.27;9.52;;;;;;;24.80;100.00;100594.72;4938426;29;20027;-69
2021/07/20 23:51:40;;;;;;;12.25;9.63;;;;;;;25.16;100.00;100589.16;4941912;28;20110;-69
2021/07/20 23:54:26;;;;;;;11.55;9.63;;;;;;;24.54;100.00;100591.34;4940230;29;20118;-70
2021/07/20 23:57:12;;;;;;;10.90;9.55;;;;;;;24.78;100.00;100581.44;4940283;29;20066;-69
2021/07/20 23:59:58;;;;;;;16.33;10.23;;;;;;;24.64;100.00;100583.50;4940222;29;20095;-69
